Time;durP1;ratioP1;P1;durP2;ratioP2;P2;SDS_P1;SDS_P2;PMS_P1;PMS_P2;Temp;Humidity;BMP_temperature;BMP_pressure;BME280_temperature;BME280_humidity;BME280_pressure;Samples;Min_cycle;Max_cycle;Signal;HPM_P1;HPM_P2
2023/07/27 00:01:25;;;;;;;;;;;;;;;;;;6032510;23;20031;-66
2023/07/27 00:03:59;;;;;;;5.70;1.50;;;;;;;;;;6031936;23;19973;-66
2023/07/27 00:06:27;;;;;;;6.45;1.30;;;;;;;;;;6033396;23;20027;-66
2023/07/27 00:08:56;;;;;;;5.35;1.35;;;;;;;;;;6042464;23;20031;-66
2023/07/27 00:11:37;;;;;;;5.25;1.52;;;;;;;;;;6061351;23;20094;-67
2023/07/27 00:14:04;;;;;;;4.60;1.50;;;;;;;;;;6062615;23;20090;-59
2023/07/27 00:16:38;;;;;;;4.68;1.23;;;;;;;;;;6061318;23;20067;-58
2023/07/27 00:19:06;;;;;;;5.82;1.60;;;;;;;;;;6061326;23;20027;-58
2023/07/27 00:21:33;;;;;;;6.95;1.30;;;;;;;;;;6061837;23;20195;-58
2023/07/27 00:24:06;;;;;;;4.43;1.27;;;;;;;;;;6060152;23;20031;-62
2023/07/27 00:26:34;;;;;;;5.32;1.15;;;;;;;;;;6061040;23;20465;-69
2023/07/27 00:29:07;;;;;;;4.20;1.35;;;;;;;;;;6062156;23;20417;-57
2023/07/27 00:31:34;;;;;;;4.88;1.55;;;;;;;;;;6063495;23;20023;-58
2023/07/27 00:34:02;;;;;;;12.13;1.52;;;;;;;;;;6063263;23;20023;-57
2023/07/27 00:36:35;;;;;;;7.28;1.35;;;;;;;;;;6063183;23;20026;-58
2023/07/27 00:39:03;;;;;;;7.57;1.67;;;;;;;;;;6062711;23;20034;-58
2023/07/27 00:41:30;;;;;;;7.95;1.38;;;;;;;;;;6063096;23;20023;-57
2023/07/27 00:44:03;;;;;;;4.70;1.52;;;;;;;;;;6063983;23;20414;-58
2023/07/27 00:46:38;;;;;;;3.80;1.15;;;;;;;;;;6063918;23;20057;-58
2023/07/27 00:49:06;;;;;;;3.35;1.20;;;;;;;;;;6062497;23;20034;-58
2023/07/27 00:51:35;;;;;;;6.90;1.30;;;;;;;;;;6060674;23;20027;-57
2023/07/27 00:54:09;;;;;;;5.20;1.02;;;;;;;;;;6062550;23;20460;-57
2023/07/27 00:56:37;;;;;;;8.20;1.67;;;;;;;;;;6061856;23;20023;-58
2023/07/27 00:59:11;;;;;;;6.97;1.27;;;;;;;;;;6062919;23;20019;-56
2023/07/27 01:01:38;;;;;;;;;;;;;;;;;;6063601;23;20090;-55
2023/07/27 01:04:05;;;;;;;3.72;1.00;;;;;;;;;;6061841;23;20327;-57
2023/07/27 01:06:40;;;;;;;2.60;0.90;;;;;;;;;;6063350;23;20469;-58
2023/07/27 01:09:07;;;;;;;1.63;0.68;;;;;;;;;;6062450;23;20027;-58
2023/07/27 01:12:00;;;;;;;1.63;0.70;;;;;;;;;;6062604;23;20129;-59
2023/07/27 01:14:41;;;;;;;1.58;0.73;;;;;;;;;;6062796;23;20030;-59
2023/07/27 01:17:32;;;;;;;5.38;1.05;;;;;;;;;;6063034;23;20027;-60
2023/07/27 01:20:10;;;;;;;4.00;1.10;;;;;;;;;;6062336;23;20093;-60
2023/07/27 01:22:59;;;;;;;4.13;0.80;;;;;;;;;;6063055;23;20023;-59
2023/07/27 01:25:39;;;;;;;1.92;0.70;;;;;;;;;;6062157;23;20030;-59
2023/07/27 01:28:13;;;;;;;3.20;0.90;;;;;;;;;;6063056;23;20031;-60
2023/07/27 01:30:57;;;;;;;3.75;0.85;;;;;;;;;;6061969;23;20022;-59
2023/07/27 01:33:34;;;;;;;2.90;0.70;;;;;;;;;;6062332;23;20026;-60
2023/07/27 01:36:12;;;;;;;4.22;1.20;;;;;;;;;;6063140;23;20029;-58
2023/07/27 01:38:47;;;;;;;4.90;1.20;;;;;;;;;;6063013;23;20078;-59
2023/07/27 01:41:17;;;;;;;2.58;0.70;;;;;;;;;;6062065;23;20414;-57
2023/07/27 01:43:45;;;;;;;4.20;1.38;;;;;;;;;;6062812;23;20034;-57
2023/07/27 01:46:21;;;;;;;3.63;1.33;;;;;;;;;;6063092;23;20035;-57
2023/07/27 01:48:51;;;;;;;6.18;1.00;;;;;;;;;;6061749;23;20106;-58
2023/07/27 01:51:25;;;;;;;6.45;1.00;;;;;;;;;;6062363;23;20074;-62
2023/07/27 01:53:53;;;;;;;3.30;1.10;;;;;;;;;;6062529;23;20027;-68
2023/07/27 01:56:22;;;;;;;1.77;0.93;;;;;;;;;;6062559;23;20026;-68
2023/07/27 01:58:55;;;;;;;4.43;1.08;;;;;;;;;;6062221;23;20031;-67
2023/07/27 02:01:23;;;;;;;4.28;1.25;;;;;;;;;;6061599;23;20091;-68
2023/07/27 02:03:57;;;;;;;5.68;1.30;;;;;;;;;;6061243;23;20358;-67
2023/07/27 02:06:24;;;;;;;8.27;1.27;;;;;;;;;;6062656;23;20019;-68
2023/07/27 02:08:51;;;;;;;3.03;1.48;;;;;;;;;;6062669;23;20027;-63
2023/07/27 02:11:26;;;;;;;10.07;2.22;;;;;;;;;;6061574;23;20078;-63
2023/07/27 02:13:53;;;;;;;;;;;;;;;;;;6063388;23;20027;-63
2023/07/27 02:16:26;;;;;;;7.40;1.63;;;;;;;;;;6061990;23;20254;-62
2023/07/27 02:18:56;;;;;;;4.10;1.65;;;;;;;;;;6061827;23;20027;-67
2023/07/27 02:21:31;;;;;;;6.53;1.83;;;;;;;;;;6062711;23;20086;-58
2023/07/27 02:23:59;;;;;;;3.20;1.83;;;;;;;;;;6062278;23;20095;-58
2023/07/27 02:26:32;;;;;;;6.07;1.70;;;;;;;;;;6061793;23;20035;-57
2023/07/27 02:29:00;;;;;;;7.70;2.22;;;;;;;;;;6062884;23;20101;-56
2023/07/27 02:31:27;;;;;;;7.50;2.15;;;;;;;;;;6061130;23;20074;-58
2023/07/27 02:34:02;;;;;;;8.73;2.50;;;;;;;;;;6062072;23;20027;-57
2023/07/27 02:36:29;;;;;;;8.43;2.60;;;;;;;;;;6061929;23;20027;-72
2023/07/27 02:39:03;;;;;;;7.82;2.40;;;;;;;;;;6061226;23;20181;-72
2023/07/27 02:41:31;;;;;;;10.40;2.60;;;;;;;;;;6061707;23;20394;-72
2023/07/27 02:43:58;;;;;;;10.65;2.45;;;;;;;;;;6060971;23;20409;-72
2023/07/27 02:46:31;;;;;;;6.18;2.30;;;;;;;;;;6061706;23;20037;-59
2023/07/27 02:48:59;;;;;;;6.18;1.98;;;;;;;;;;6061758;23;20397;-67
2023/07/27 02:51:33;;;;;;;7.13;2.28;;;;;;;;;;6062105;23;20031;-58
2023/07/27 02:54:01;;;;;;;11.07;3.33;;;;;;;;;;6061884;23;20334;-59
2023/07/27 02:56:28;;;;;;;8.77;2.33;;;;;;;;;;6055955;23;20481;-58
2023/07/27 02:59:02;;;;;;;6.05;2.30;;;;;;;;;;6062921;23;20042;-58
2023/07/27 03:01:29;;;;;;;6.53;2.33;;;;;;;;;;6060335;23;20086;-58
2023/07/27 03:03:56;;;;;;;13.43;2.85;;;;;;;;;;6061657;23;20472;-58
2023/07/27 03:06:30;;;;;;;7.72;3.00;;;;;;;;;;6062327;23;20034;-56
2023/07/27 03:08:58;;;;;;;11.38;3.53;;;;;;;;;;6060557;23;20027;-56
2023/07/27 03:11:39;;;;;;;8.98;3.05;;;;;;;;;;6060166;23;20030;-57
2023/07/27 03:14:06;;;;;;;13.43;3.10;;;;;;;;;;6062023;23;20022;-57
2023/07/27 03:16:40;;;;;;;10.70;3.20;;;;;;;;;;6060973;23;20022;-58
2023/07/27 03:19:14;;;;;;;12.80;3.80;;;;;;;;;;6061289;23;20363;-59
2023/07/27 03:21:42;;;;;;;13.13;3.83;;;;;;;;;;6061791;23;20026;-59
2023/07/27 03:24:09;;;;;;;9.80;3.00;;;;;;;;;;6061345;23;20045;-58
2023/07/27 03:26:43;;;;;;;13.00;3.83;;;;;;;;;;6058692;23;20023;-58
2023/07/27 03:29:10;;;;;;;11.35;3.30;;;;;;;;;;6059946;23;20472;-58
2023/07/27 03:31:44;;;;;;;9.85;3.60;;;;;;;;;;6060468;23;20484;-58
2023/07/27 03:34:12;;;;;;;17.05;3.55;;;;;;;;;;6062324;23;20031;-66
2023/07/27 03:36:39;;;;;;;22.30;4.13;;;;;;;;;;6061048;23;20508;-67
2023/07/27 03:39:12;;;;;;;14.38;3.17;;;;;;;;;;6061718;23;20023;-65
2023/07/27 03:41:39;;;;;;;14.93;3.97;;;;;;;;;;6061090;23;20090;-67
2023/07/27 03:44:14;;;;;;;13.02;4.45;;;;;;;;;;6061796;23;20026;-59
2023/07/27 03:46:41;;;;;;;9.43;2.92;;;;;;;;;;6060160;23;20034;-63
2023/07/27 03:49:09;;;;;;;14.30;3.75;;;;;;;;;;6061589;23;20349;-63
2023/07/27 03:51:42;;;;;;;15.27;3.80;;;;;;;;;;6061642;23;20031;-63
2023/07/27 03:54:09;;;;;;;15.43;4.20;;;;;;;;;;6060275;23;20060;-63
2023/07/27 03:56:43;;;;;;;14.27;4.32;;;;;;;;;;6060378;23;20027;-62
2023/07/27 03:59:10;;;;;;;9.63;3.92;;;;;;;;;;6062025;23;20083;-63
2023/07/27 04:01:41;;;;;;;14.93;4.22;;;;;;;;;;6059785;23;20049;-63
2023/07/27 04:04:35;;;;;;;18.75;4.60;;;;;;;;;;6060910;23;20497;-63
2023/07/27 04:07:22;;;;;;;15.00;4.50;;;;;;;;;;6061964;23;20085;-63
2023/07/27 04:10:22;;;;;;;18.00;4.55;;;;;;;;;;6060346;23;20023;-62
2023/07/27 04:13:10;;;;;;;20.73;5.03;;;;;;;;;;6062435;23;20026;-63
2023/07/27 04:16:04;;;;;;;14.52;4.18;;;;;;;;;;6060981;23;20026;-59
2023/07/27 04:18:51;;;;;;;14.43;4.88;;;;;;;;;;6060842;23;20034;-60
2023/07/27 04:21:44;;;;;;;13.02;3.97;;;;;;;;;;6061714;23;20023;-59
2023/07/27 04:24:40;;;;;;;22.08;5.20;;;;;;;;;;6062217;23;20026;-59
2023/07/27 04:27:31;;;;;;;22.35;5.03;;;;;;;;;;6060843;23;20033;-60
2023/07/27 04:30:19;;;;;;;30.52;6.90;;;;;;;;;;6061648;23;20086;-57
2023/07/27 04:33:12;;;;;;;21.80;4.55;;;;;;;;;;6061737;23;20023;-56
2023/07/27 04:36:01;;;;;;;20.02;5.18;;;;;;;;;;6060492;23;20031;-56
2023/07/27 04:38:55;;;;;;;12.95;5.15;;;;;;;;;;6060220;23;20019;-58
2023/07/27 04:41:42;;;;;;;18.02;5.97;;;;;;;;;;6061515;23;20402;-57
2023/07/27 04:44:35;;;;;;;13.82;4.60;;;;;;;;;;6061203;23;20090;-58
2023/07/27 04:47:29;;;;;;;10.93;3.97;;;;;;;;;;6060368;23;20031;-58
2023/07/27 04:50:23;;;;;;;12.98;3.90;;;;;;;;;;6061480;23;20106;-58
2023/07/27 04:53:11;;;;;;;18.02;4.70;;;;;;;;;;6061450;23;20094;-58
2023/07/27 04:56:05;;;;;;;16.23;4.47;;;;;;;;;;6060729;23;20023;-59
2023/07/27 04:58:52;;;;;;;16.00;4.50;;;;;;;;;;6061334;23;20031;-60
2023/07/27 05:01:46;;;;;;;19.10;5.47;;;;;;;;;;6060850;23;20026;-59
2023/07/27 05:04:33;;;;;;;16.42;4.65;;;;;;;;;;6061814;23;20027;-59
2023/07/27 05:07:27;;;;;;;15.60;4.82;;;;;;;;;;6059909;23;20468;-59
2023/07/27 05:10:22;;;;;;;21.20;5.32;;;;;;;;;;6061663;23;20030;-61
2023/07/27 05:13:21;;;;;;;18.10;4.78;;;;;;;;;;6061346;23;20393;-63
2023/07/27 05:16:08;;;;;;;12.90;3.47;;;;;;;;;;6062776;23;20027;-62
2023/07/27 05:19:03;;;;;;;14.82;3.40;;;;;;;;;;6063353;23;20373;-63
2023/07/27 05:21:50;;;;;;;22.70;4.65;;;;;;;;;;6061722;23;20086;-63
2023/07/27 05:24:44;;;;;;;12.40;3.17;;;;;;;;;;6062989;23;20540;-63
2023/07/27 05:27:32;;;;;;;14.00;3.45;;;;;;;;;;6063733;23;20027;-57
2023/07/27 05:30:25;;;;;;;10.07;3.08;;;;;;;;;;6061424;23;20091;-58
2023/07/27 05:33:14;;;;;;;15.52;3.65;;;;;;;;;;6063819;23;20023;-58
2023/07/27 05:36:09;;;;;;;6.18;2.90;;;;;;;;;;6062968;23;20400;-57
2023/07/27 05:38:56;;;;;;;9.43;2.10;;;;;;;;;;6061551;23;20338;-59
2023/07/27 05:41:49;;;;;;;9.93;2.40;;;;;;;;;;6062356;23;20027;-59
2023/07/27 05:44:36;;;;;;;13.40;2.92;;;;;;;;;;6061884;23;20461;-58
2023/07/27 05:47:30;;;;;;;5.32;1.92;;;;;;;;;;6062725;23;20335;-58
2023/07/27 05:50:18;;;;;;;11.52;2.33;;;;;;;;;;6062608;23;20125;-58
2023/07/27 05:53:11;;;;;;;7.30;1.95;;;;;;;;;;6062093;23;20019;-60
2023/07/27 05:56:05;;;;;;;9.65;2.20;;;;;;;;;;6063307;23;20091;-63
2023/07/27 05:58:53;;;;;;;10.95;2.10;;;;;;;;;;6062231;23;20035;-62
2023/07/27 06:01:46;;;;;;;7.47;2.25;;;;;;;;;;6062085;23;20027;-63
2023/07/27 06:04:40;;;;;;;13.75;2.75;;;;;;;;;;6061676;23;20229;-63
2023/07/27 06:07:27;;;;;;;13.07;2.20;;;;;;;;;;6062157;23;20541;-63
2023/07/27 06:10:28;;;;;;;11.63;2.30;;;;;;;;;;6062753;23;20030;-59
2023/07/27 06:13:15;;;;;;;8.27;1.98;;;;;;;;;;6061243;23;20023;-59
2023/07/27 06:16:09;;;;;;;8.85;2.35;;;;;;;;;;6062546;23;20019;-59
2023/07/27 06:18:57;;;;;;;7.53;2.05;;;;;;;;;;6061827;23;20054;-60
2023/07/27 06:21:58;;;;;;;12.60;2.00;;;;;;;;;;6061852;23;20410;-59
2023/07/27 06:24:45;;;;;;;11.18;1.98;;;;;;;;;;6062782;23;20829;-59
2023/07/27 06:27:40;;;;;;;7.78;1.42;;;;;;;;;;6061791;23;20027;-59
2023/07/27 06:30:27;;;;;;;8.18;1.70;;;;;;;;;;6062348;23;20356;-59
2023/07/27 06:33:20;;;;;;;4.82;1.55;;;;;;;;;;6062525;23;20038;-59
2023/07/27 06:36:08;;;;;;;4.60;1.50;;;;;;;;;;6060878;23;20023;-59
2023/07/27 06:39:02;;;;;;;4.40;1.38;;;;;;;;;;6062370;23;20035;-57
2023/07/27 06:41:49;;;;;;;12.43;1.70;;;;;;;;;;6056975;23;20548;-56
2023/07/27 06:44:44;;;;;;;8.95;1.98;;;;;;;;;;6061543;23;20364;-54
2023/07/27 06:47:31;;;;;;;4.65;1.65;;;;;;;;;;6061790;23;20090;-54
2023/07/27 06:50:25;;;;;;;4.38;1.00;;;;;;;;;;6061259;23;20027;-53
2023/07/27 06:53:12;;;;;;;4.45;1.30;;;;;;;;;;6062086;23;20026;-58
2023/07/27 06:56:06;;;;;;;6.30;1.65;;;;;;;;;;6061186;23;20027;-59
2023/07/27 06:58:53;;;;;;;3.50;1.30;;;;;;;;;;6060625;23;20405;-58
2023/07/27 07:01:47;;;;;;;6.22;1.50;;;;;;;;;;6061030;23;20575;-58
2023/07/27 07:04:34;;;;;;;4.72;1.70;;;;;;;;;;6062483;23;20029;-60
2023/07/27 07:07:27;;;;;;;11.57;1.30;;;;;;;;;;6061696;23;20030;-60
2023/07/27 07:10:21;;;;;;;6.78;1.50;;;;;;;;;;6057820;23;20484;-60
2023/07/27 07:13:14;;;;;;;6.82;1.75;;;;;;;;;;6060738;23;20480;-60
2023/07/27 07:16:02;;;;;;;8.68;1.50;;;;;;;;;;6062649;23;20082;-60
2023/07/27 07:18:56;;;;;;;7.60;1.92;;;;;;;;;;6061698;23;20023;-60
2023/07/27 07:21:49;;;;;;;12.10;1.90;;;;;;;;;;6062065;23;20023;-68
2023/07/27 07:24:44;;;;;;;6.28;1.80;;;;;;;;;;6061300;23;20046;-68
2023/07/27 07:27:37;;;;;;;7.50;1.42;;;;;;;;;;6060479;23;20019;-69
2023/07/27 07:30:25;;;;;;;9.02;1.85;;;;;;;;;;6062223;23;20030;-68
2023/07/27 07:33:19;;;;;;;11.00;1.83;;;;;;;;;;6061997;23;20058;-60
2023/07/27 07:36:06;;;;;;;5.85;1.52;;;;;;;;;;6061868;23;20022;-56
2023/07/27 07:39:00;;;;;;;6.03;1.58;;;;;;;;;;6061666;23;20022;-57
2023/07/27 07:41:54;;;;;;;7.03;1.80;;;;;;;;;;6059580;23;20098;-56
2023/07/27 07:44:41;;;;;;;9.20;1.60;;;;;;;;;;6062230;23;20090;-56
2023/07/27 07:47:35;;;;;;;2.70;1.00;;;;;;;;;;6062283;23;20330;-54
2023/07/27 07:50:23;;;;;;;5.90;1.50;;;;;;;;;;6061765;23;20082;-71
2023/07/27 07:53:16;;;;;;;6.78;1.80;;;;;;;;;;6061523;23;20074;-71
2023/07/27 07:56:03;;;;;;;5.78;1.55;;;;;;;;;;6061105;23;20461;-70
2023/07/27 07:58:56;;;;;;;4.57;1.60;;;;;;;;;;6062070;23;20104;-71
2023/07/27 08:01:44;;;;;;;4.40;1.40;;;;;;;;;;6059960;23;20415;-62
2023/07/27 08:04:38;;;;;;;2.90;1.10;;;;;;;;;;6060906;23;20023;-63
2023/07/27 08:07:25;;;;;;;8.20;1.52;;;;;;;;;;6061387;23;20445;-62
2023/07/27 08:10:21;;;;;;;4.35;1.35;;;;;;;;;;6060625;23;20485;-62
2023/07/27 08:13:21;;;;;;;5.07;1.20;;;;;;;;;;6061001;23;20029;-61
2023/07/27 08:16:09;;;;;;;5.45;1.08;;;;;;;;;;6062342;23;20031;-62
2023/07/27 08:19:03;;;;;;;4.43;1.05;;;;;;;;;;6060953;23;20444;-59
2023/07/27 08:21:50;;;;;;;3.53;1.23;;;;;;;;;;6060293;23;20476;-59
2023/07/27 08:24:43;;;;;;;6.03;1.35;;;;;;;;;;6061456;23;20079;-59
2023/07/27 08:27:47;;;;;;;2.28;0.98;;;;;;;;;;6060245;23;20023;-59
2023/07/27 08:30:43;;;;;;;2.50;1.00;;;;;;;;;;6061423;23;20023;-63
2023/07/27 08:33:47;;;;;;;1.60;0.80;;;;;;;;;;6060185;23;20103;-54
2023/07/27 08:36:50;;;;;;;4.75;1.20;;;;;;;;;;6061562;23;20115;-57
2023/07/27 08:39:35;;;;;;;3.67;1.10;;;;;;;;;;6061628;23;20031;-55
2023/07/27 08:42:29;;;;;;;1.15;0.65;;;;;;;;;;6061213;23;20338;-55
2023/07/27 08:45:20;;;;;;;3.08;1.10;;;;;;;;;;6060548;23;20461;-54
2023/07/27 08:48:14;;;;;;;3.13;1.40;;;;;;;;;;6061776;23;20018;-74
2023/07/27 08:51:02;;;;;;;1.70;0.73;;;;;;;;;;6063827;23;20026;-76
2023/07/27 08:53:55;;;;;;;3.03;0.90;;;;;;;;;;6063005;23;20027;-76
2023/07/27 08:56:43;;;;;;;3.20;0.88;;;;;;;;;;6063237;23;20025;-75
2023/07/27 08:59:36;;;;;;;2.03;0.73;;;;;;;;;;6063244;23;20027;-64
2023/07/27 09:02:24;;;;;;;2.60;0.65;;;;;;;;;;6061819;23;20018;-65
2023/07/27 09:05:17;;;;;;;7.13;0.90;;;;;;;;;;6062656;23;20365;-65
2023/07/27 09:08:14;;;;;;;0.75;0.60;;;;;;;;;;6062118;23;20031;-66
2023/07/27 09:11:20;;;;;;;1.95;0.80;;;;;;;;;;6062321;23;20377;-66
2023/07/27 09:14:07;;;;;;;1.23;0.60;;;;;;;;;;6062745;23;20026;-66
2023/07/27 09:17:01;;;;;;;1.90;0.65;;;;;;;;;;6063905;23;20049;-58
2023/07/27 09:19:50;;;;;;;3.50;0.80;;;;;;;;;;6062079;23;20033;-59
2023/07/27 09:22:45;;;;;;;6.15;0.90;;;;;;;;;;6062912;23;20023;-59
2023/07/27 09:25:32;;;;;;;1.55;0.73;;;;;;;;;;6062996;23;20461;-66
2023/07/27 09:28:26;;;;;;;4.18;0.60;;;;;;;;;;6063383;23;20086;-71
2023/07/27 09:31:13;;;;;;;1.63;0.70;;;;;;;;;;6062400;23;20023;-70
2023/07/27 09:34:08;;;;;;;3.00;0.77;;;;;;;;;;6062752;23;20029;-71
2023/07/27 09:37:02;;;;;;;2.28;0.93;;;;;;;;;;6062705;23;20489;-71
2023/07/27 09:40:08;;;;;;;2.92;0.82;;;;;;;;;;6063270;23;20050;-70
2023/07/27 09:42:55;;;;;;;2.97;0.70;;;;;;;;;;6061915;23;20031;-70
2023/07/27 09:45:55;;;;;;;4.13;0.90;;;;;;;;;;6063199;23;20033;-59
2023/07/27 09:48:43;;;;;;;1.75;0.38;;;;;;;;;;6062278;23;20023;-59
2023/07/27 09:51:36;;;;;;;2.58;0.80;;;;;;;;;;6061379;23;20030;-58
2023/07/27 09:54:23;;;;;;;2.72;1.00;;;;;;;;;;6062497;23;20406;-60
2023/07/27 09:57:16;;;;;;;4.43;0.70;;;;;;;;;;6062111;23;20082;-55
2023/07/27 10:00:05;;;;;;;2.15;1.13;;;;;;;;;;6062797;23;20019;-57
2023/07/27 10:02:58;;;;;;;4.43;1.00;;;;;;;;;;6060993;23;20524;-54
2023/07/27 10:05:45;;;;;;;4.28;1.13;;;;;;;;;;6061933;23;20022;-54
2023/07/27 10:08:38;;;;;;;6.85;1.13;;;;;;;;;;6061203;23;20023;-55
2023/07/27 10:11:36;;;;;;;2.47;0.60;;;;;;;;;;6060142;23;20027;-54
2023/07/27 10:14:31;;;;;;;1.30;0.68;;;;;;;;;;6062859;23;20039;-72
2023/07/27 10:17:18;;;;;;;4.77;1.00;;;;;;;;;;6059795;23;20481;-71
2023/07/27 10:20:26;;;;;;;1.27;0.70;;;;;;;;;;6062535;23;20716;-70
2023/07/27 10:23:16;;;;;;;4.07;0.73;;;;;;;;;;6062214;23;20038;-52
2023/07/27 10:26:07;;;;;;;2.53;0.70;;;;;;;;;;6060612;23;20026;-56
2023/07/27 10:29:12;;;;;;;2.60;0.70;;;;;;;;;;6062566;23;20027;-56
2023/07/27 10:32:07;;;;;;;1.48;0.68;;;;;;;;;;6060717;23;20027;-55
2023/07/27 10:35:06;;;;;;;3.30;0.85;;;;;;;;;;6061412;23;20031;-56
2023/07/27 10:38:01;;;;;;;1.55;0.75;;;;;;;;;;6061900;23;20042;-55
2023/07/27 10:40:48;;;;;;;1.48;0.70;;;;;;;;;;6062741;23;20027;-69
2023/07/27 10:44:00;;;;;;;0.65;0.60;;;;;;;;;;6060979;23;20026;-68
2023/07/27 10:46:48;;;;;;;1.13;0.70;;;;;;;;;;6061022;23;20484;-68
2023/07/27 10:49:45;;;;;;;1.33;0.55;;;;;;;;;;6061329;23;20030;-65
2023/07/27 10:52:39;;;;;;;8.95;0.88;;;;;;;;;;6061735;23;20031;-59
2023/07/27 10:55:37;;;;;;;3.10;0.95;;;;;;;;;;6061476;23;20026;-53
2023/07/27 10:58:25;;;;;;;3.97;0.77;;;;;;;;;;6062091;23;20027;-56
2023/07/27 11:01:18;;;;;;;0.88;0.80;;;;;;;;;;6062491;23;20026;-55
2023/07/27 11:04:06;;;;;;;4.43;1.08;;;;;;;;;;6061186;23;20406;-55
2023/07/27 11:07:00;;;;;;;3.22;0.68;;;;;;;;;;6060796;23;20737;-55
2023/07/27 11:09:53;;;;;;;2.47;0.80;;;;;;;;;;6060854;23;20414;-60
2023/07/27 11:12:59;;;;;;;3.90;0.98;;;;;;;;;;6061639;23;20536;-61
2023/07/27 11:15:46;;;;;;;2.38;0.77;;;;;;;;;;6062933;23;20079;-60
2023/07/27 11:18:44;;;;;;;1.00;0.75;;;;;;;;;;6060997;23;20031;-61
2023/07/27 11:21:32;;;;;;;2.72;0.80;;;;;;;;;;6062553;23;20615;-61
2023/07/27 11:24:26;;;;;;;2.78;1.10;;;;;;;;;;6061913;23;20402;-61
2023/07/27 11:27:14;;;;;;;1.75;0.90;;;;;;;;;;6060954;23;20023;-61
2023/07/27 11:30:12;;;;;;;2.53;0.88;;;;;;;;;;6062690;23;20066;-62
2023/07/27 11:32:59;;;;;;;2.63;1.00;;;;;;;;;;6061411;23;20034;-61
2023/07/27 11:35:52;;;;;;;2.28;0.80;;;;;;;;;;6061204;23;20026;-63
2023/07/27 11:38:41;;;;;;;4.68;0.82;;;;;;;;;;6061764;23;20025;-55
2023/07/27 11:41:34;;;;;;;1.52;0.93;;;;;;;;;;6062069;23;20357;-51
2023/07/27 11:44:21;;;;;;;2.28;0.85;;;;;;;;;;6061379;23;20078;-55
2023/07/27 11:47:15;;;;;;;1.27;0.80;;;;;;;;;;6061189;23;20030;-58
2023/07/27 11:50:08;;;;;;;1.00;0.57;;;;;;;;;;6062339;23;20101;-59
2023/07/27 11:53:03;;;;;;;3.13;0.90;;;;;;;;;;6061064;23;20027;-63
2023/07/27 11:56:08;;;;;;;1.38;1.00;;;;;;;;;;6062349;23;20149;-63
2023/07/27 11:59:02;;;;;;;1.60;1.13;;;;;;;;;;6061549;23;20031;-63
2023/07/27 12:01:50;;;;;;;0.82;0.60;;;;;;;;;;6060427;23;20026;-64
2023/07/27 12:04:44;;;;;;;1.58;0.82;;;;;;;;;;6061154;23;20059;-63
2023/07/27 12:07:32;;;;;;;2.60;0.60;;;;;;;;;;6061658;23;20329;-58
2023/07/27 12:10:35;;;;;;;1.48;0.70;;;;;;;;;;6064109;23;20041;-58
2023/07/27 12:13:26;;;;;;;1.35;0.50;;;;;;;;;;6061989;23;20027;-58
2023/07/27 12:16:23;;;;;;;2.35;0.85;;;;;;;;;;6060639;23;20023;-54
2023/07/27 12:19:13;;;;;;;1.20;0.65;;;;;;;;;;6061956;23;20035;-66
2023/07/27 12:22:06;;;;;;;4.15;0.70;;;;;;;;;;6061810;23;20078;-66
2023/07/27 12:24:57;;;;;;;2.03;0.63;;;;;;;;;;6063814;23;20023;-66
2023/07/27 12:27:53;;;;;;;4.07;1.00;;;;;;;;;;6063663;23;20097;-65
2023/07/27 12:30:44;;;;;;;5.28;0.77;;;;;;;;;;6063500;23;20034;-66
2023/07/27 12:33:41;;;;;;;2.45;0.70;;;;;;;;;;6062426;23;20082;-66
2023/07/27 12:36:28;;;;;;;1.60;0.80;;;;;;;;;;6063574;23;20027;-66
2023/07/27 12:39:24;;;;;;;2.38;0.90;;;;;;;;;;6063498;23;20081;-66
2023/07/27 12:42:11;;;;;;;2.22;0.73;;;;;;;;;;6063876;23;20074;-66
2023/07/27 12:45:06;;;;;;;2.15;1.00;;;;;;;;;;6063246;23;20252;-59
2023/07/27 12:47:53;;;;;;;3.23;0.80;;;;;;;;;;6062879;23;20481;-70
2023/07/27 12:50:47;;;;;;;2.67;1.00;;;;;;;;;;6062829;23;20023;-71
2023/07/27 12:53:42;;;;;;;4.18;0.90;;;;;;;;;;6062334;23;20038;-71
2023/07/27 12:56:35;;;;;;;2.20;1.02;;;;;;;;;;6063424;23;20030;-72
2023/07/27 12:59:23;;;;;;;4.50;0.90;;;;;;;;;;6063293;23;20468;-72
2023/07/27 13:02:19;;;;;;;1.60;0.80;;;;;;;;;;6062012;23;20025;-65
2023/07/27 13:05:13;;;;;;;2.38;1.20;;;;;;;;;;6063604;23;20306;-59
2023/07/27 13:08:04;;;;;;;3.03;0.60;;;;;;;;;;6061621;23;20494;-59
2023/07/27 13:10:57;;;;;;;1.88;0.90;;;;;;;;;;6062249;23;20117;-59
2023/07/27 13:13:58;;;;;;;1.42;0.80;;;;;;;;;;6062619;23;20019;-58
2023/07/27 13:16:45;;;;;;;2.47;0.90;;;;;;;;;;6062599;23;20034;-66
2023/07/27 13:19:40;;;;;;;2.47;0.95;;;;;;;;;;6060928;23;20027;-66
2023/07/27 13:22:27;;;;;;;2.33;0.57;;;;;;;;;;6062740;23;20023;-66
2023/07/27 13:25:21;;;;;;;4.38;0.88;;;;;;;;;;6063267;23;20082;-66
2023/07/27 13:28:16;;;;;;;2.47;0.70;;;;;;;;;;6062195;23;20023;-66
2023/07/27 13:31:13;;;;;;;2.50;0.85;;;;;;;;;;6063271;23;20023;-61
2023/07/27 13:34:07;;;;;;;1.08;0.50;;;;;;;;;;6063486;23;20524;-61
2023/07/27 13:36:54;;;;;;;4.32;0.82;;;;;;;;;;6060949;23;20023;-60
2023/07/27 13:39:48;;;;;;;2.15;0.85;;;;;;;;;;6063020;23;20027;-61
2023/07/27 13:42:35;;;;;;;0.68;0.50;;;;;;;;;;6062150;23;20027;-59
2023/07/27 13:45:29;;;;;;;3.72;1.05;;;;;;;;;;6063260;23;20027;-75
2023/07/27 13:48:16;;;;;;;4.70;0.70;;;;;;;;;;6062095;23;20033;-75
2023/07/27 13:51:10;;;;;;;3.72;0.70;;;;;;;;;;6062454;23;20105;-74
2023/07/27 13:53:58;;;;;;;1.25;0.52;;;;;;;;;;6062512;23;20078;-74
2023/07/27 13:56:52;;;;;;;1.95;0.85;;;;;;;;;;6061556;23;20023;-74
2023/07/27 13:59:39;;;;;;;1.27;0.70;;;;;;;;;;6062814;23;20027;-73
2023/07/27 14:02:33;;;;;;;1.80;0.60;;;;;;;;;;6062202;23;20620;-73
2023/07/27 14:05:25;;;;;;;1.75;0.60;;;;;;;;;;6061607;23;20401;-72
2023/07/27 14:08:23;;;;;;;2.80;0.77;;;;;;;;;;6061692;23;20405;-73
2023/07/27 14:11:16;;;;;;;4.93;0.85;;;;;;;;;;6061952;23;20027;-58
2023/07/27 14:14:11;;;;;;;2.50;0.70;;;;;;;;;;6061387;23;20026;-59
2023/07/27 14:16:58;;;;;;;2.38;1.00;;;;;;;;;;6062379;23;20098;-59
2023/07/27 14:19:52;;;;;;;2.78;0.80;;;;;;;;;;6061610;23;20019;-59
2023/07/27 14:22:39;;;;;;;1.80;0.85;;;;;;;;;;6061938;23;20026;-59
2023/07/27 14:25:33;;;;;;;1.83;0.88;;;;;;;;;;6062968;23;20540;-59
2023/07/27 14:28:20;;;;;;;3.30;0.90;;;;;;;;;;6061977;23;20034;-67
2023/07/27 14:31:14;;;;;;;1.58;0.60;;;;;;;;;;6062513;23;20098;-67
2023/07/27 14:34:05;;;;;;;2.10;0.90;;;;;;;;;;6062634;23;20026;-68
2023/07/27 14:36:58;;;;;;;2.85;0.95;;;;;;;;;;6060712;23;20027;-67
2023/07/27 14:39:45;;;;;;;3.67;0.70;;;;;;;;;;6062300;23;20026;-72
2023/07/27 14:42:59;;;;;;;1.23;0.70;;;;;;;;;;6061026;23;20109;-59
2023/07/27 14:45:46;;;;;;;1.58;0.70;;;;;;;;;;6061857;23;20528;-59
2023/07/27 14:48:40;;;;;;;1.77;0.82;;;;;;;;;;6061277;23;20030;-59
2023/07/27 14:51:27;;;;;;;1.63;0.95;;;;;;;;;;6061950;23;20055;-59
2023/07/27 14:54:21;;;;;;;4.25;0.63;;;;;;;;;;6061166;23;20082;-59
2023/07/27 14:57:08;;;;;;;3.63;0.93;;;;;;;;;;6062593;23;20029;-67
2023/07/27 15:00:04;;;;;;;4.18;0.90;;;;;;;;;;6060713;23;20476;-67
2023/07/27 15:02:50;;;;;;;7.30;0.80;;;;;;;;;;6060988;23;20027;-67
2023/07/27 15:05:58;;;;;;;3.22;0.70;;;;;;;;;;6061682;23;20102;-67
2023/07/27 15:08:45;;;;;;;3.75;0.90;;;;;;;;;;6061449;23;20098;-59
2023/07/27 15:11:46;;;;;;;1.45;0.68;;;;;;;;;;6060354;23;20480;-59
2023/07/27 15:14:33;;;;;;;3.30;0.68;;;;;;;;;;6061619;23;20030;-59
2023/07/27 15:17:28;;;;;;;1.38;0.77;;;;;;;;;;6061412;23;20086;-59
2023/07/27 15:20:15;;;;;;;3.30;0.80;;;;;;;;;;6062085;23;20026;-59
2023/07/27 15:23:09;;;;;;;5.47;1.08;;;;;;;;;;6057152;23;20683;-59
2023/07/27 15:25:58;;;;;;;2.35;0.82;;;;;;;;;;6061229;23;20026;-50
2023/07/27 15:28:52;;;;;;;1.90;0.82;;;;;;;;;;6058983;23;20030;-56
2023/07/27 15:31:39;;;;;;;1.23;0.65;;;;;;;;;;6062480;23;20023;-56
2023/07/27 15:34:33;;;;;;;2.25;0.82;;;;;;;;;;6061276;23;20151;-54
2023/07/27 15:37:20;;;;;;;1.83;0.80;;;;;;;;;;6059029;23;20093;-55
2023/07/27 15:40:14;;;;;;;4.90;1.10;;;;;;;;;;6059841;23;20031;-64
2023/07/27 15:43:01;;;;;;;2.90;0.68;;;;;;;;;;6061411;23;20319;-64
2023/07/27 15:45:55;;;;;;;1.75;0.80;;;;;;;;;;6061571;23;20095;-64
2023/07/27 15:48:42;;;;;;;4.75;1.13;;;;;;;;;;6060272;23;20026;-64
2023/07/27 15:51:36;;;;;;;1.92;0.70;;;;;;;;;;6060079;23;20802;-63
2023/07/27 15:54:24;;;;;;;2.67;0.80;;;;;;;;;;6061816;23;20023;-56
2023/07/27 15:57:17;;;;;;;3.95;0.80;;;;;;;;;;6059933;23;20019;-54
2023/07/27 16:00:04;;;;;;;2.92;0.80;;;;;;;;;;6061247;23;20022;-53
2023/07/27 16:02:58;;;;;;;2.85;1.15;;;;;;;;;;6060084;23;20061;-55
2023/07/27 16:05:52;;;;;;;4.05;0.80;;;;;;;;;;6058307;23;20019;-60
2023/07/27 16:08:46;;;;;;;2.47;0.93;;;;;;;;;;6059145;23;20349;-59
2023/07/27 16:11:39;;;;;;;1.40;0.77;;;;;;;;;;6060969;23;20555;-59
2023/07/27 16:14:39;;;;;;;4.22;0.90;;;;;;;;;;6059197;23;20027;-60
2023/07/27 16:17:27;;;;;;;5.55;0.90;;;;;;;;;;6059810;23;20344;-59
2023/07/27 16:20:21;;;;;;;5.32;0.90;;;;;;;;;;6060971;23;20053;-59
2023/07/27 16:23:10;;;;;;;1.98;0.82;;;;;;;;;;6061431;23;20322;-67
2023/07/27 16:26:05;;;;;;;5.15;0.85;;;;;;;;;;6061183;23;20030;-67
2023/07/27 16:28:53;;;;;;;2.70;1.10;;;;;;;;;;6060454;23;20019;-68
2023/07/27 16:31:47;;;;;;;1.23;0.73;;;;;;;;;;6059236;23;20086;-54
2023/07/27 16:34:34;;;;;;;6.90;1.00;;;;;;;;;;6060676;23;20074;-66
2023/07/27 16:37:28;;;;;;;3.10;1.30;;;;;;;;;;6061529;23;20030;-59